Medicilandia, Brazil
Current Conditions -  °F | °C
As of 5:00 PM on Tuesday 21 Oct 2014 (Local Time) from SBHT Reporting Station
Scattered Clouds Scattered Clouds  
Wind Chill: 91°   Ceiling: Unl
Heat Index: 105°   Visibility: 6mi
Dew Point: 77°   Wind: 2mph
Humidity: 63%   Direction: 100°E
Pressure: 29.74"   Gusts: NA
Location:  3.45°S, 52.89°W
Report Text: SBHT 212000Z 10002KT 9999 SCT025 33/25 Q1007
Loading
Personal Weather Stations






























Interactive Weather Map
Tropical Storm Tracking
New forecast layout! Learn more

10-Day Weather Forecast

Advertisements
Track Severe Weather on mobile